createdAt,value
2019-03-30T00:00:24.321Z,31.50
2019-03-30T00:01:24.312Z,31.90
2019-03-30T00:02:24.298Z,33.10
2019-03-30T00:03:24.318Z,32.60
2019-03-30T00:04:24.274Z,33.70
2019-03-30T00:05:24.262Z,32.60
2019-03-30T00:06:24.350Z,34.70
2019-03-30T00:07:24.240Z,32.70
2019-03-30T00:08:24.228Z,30.60
2019-03-30T00:09:24.233Z,32.80
2019-03-30T00:10:24.207Z,31.90
2019-03-30T00:11:24.196Z,34.10
2019-03-30T00:12:24.185Z,32.60
2019-03-30T00:13:24.173Z,32.20
2019-03-30T00:14:24.196Z,33.20
2019-03-30T00:15:24.150Z,32.60
2019-03-30T00:16:24.140Z,35.20
2019-03-30T00:17:24.127Z,32.10
2019-03-30T00:18:24.121Z,29.90
2019-03-30T00:19:34.377Z,31.70
2019-03-30T00:20:25.131Z,34.20
2019-03-30T00:21:24.082Z,32.60
2019-03-30T00:22:24.071Z,32.70
2019-03-30T00:23:24.059Z,31.60
2019-03-30T00:24:24.050Z,33.30
2019-03-30T00:25:24.065Z,29.70
2019-03-30T00:26:24.032Z,31.70
2019-03-30T00:27:24.014Z,31.70
2019-03-30T00:28:24.003Z,29.60
2019-03-30T00:29:23.993Z,30.30
2019-03-30T00:30:23.984Z,32.90
2019-03-30T00:31:23.984Z,30.00
2019-03-30T00:32:23.958Z,31.10
2019-03-30T00:33:23.946Z,31.10
2019-03-30T00:34:23.935Z,30.60
2019-03-30T00:35:23.924Z,29.00
2019-03-30T00:36:23.940Z,30.10
2019-03-30T00:37:23.906Z,28.20
2019-03-30T00:38:23.892Z,29.80
2019-03-30T00:39:23.883Z,30.30
2019-03-30T00:40:23.869Z,27.50
2019-03-30T00:41:23.856Z,29.90
2019-03-30T00:42:23.862Z,28.30
2019-03-30T00:43:23.835Z,29.70
2019-03-30T00:44:23.822Z,28.90
2019-03-30T00:45:23.813Z,27.90
2019-03-30T00:46:23.801Z,28.80
2019-03-30T00:47:23.815Z,27.60
2019-03-30T00:48:23.776Z,31.10
2019-03-30T00:49:23.768Z,27.90
2019-03-30T00:50:23.754Z,30.10
2019-03-30T00:51:23.746Z,27.30
2019-03-30T00:52:23.733Z,26.90
2019-03-30T00:53:23.737Z,29.80
2019-03-30T00:54:23.717Z,30.00
2019-03-30T00:55:23.699Z,28.60
2019-03-30T00:56:23.686Z,28.00
2019-03-30T00:57:23.676Z,27.80
2019-03-30T00:58:25.638Z,27.50
2019-03-30T00:59:23.654Z,28.10
2019-03-30T01:00:23.642Z,28.50
2019-03-30T01:01:23.631Z,28.90
2019-03-30T01:02:31.885Z,26.60
2019-03-30T01:03:23.608Z,29.90
2019-03-30T01:04:23.613Z,29.10
2019-03-30T01:05:23.587Z,29.70
2019-03-30T01:06:23.576Z,29.10
2019-03-30T01:07:31.929Z,29.00
2019-03-30T01:08:23.553Z,30.10
2019-03-30T01:09:23.572Z,30.70
2019-03-30T01:10:23.532Z,29.40
2019-03-30T01:11:23.519Z,36.10
2019-03-30T01:12:23.509Z,32.10
2019-03-30T01:13:23.497Z,30.90
2019-03-30T01:14:23.484Z,31.20
2019-03-30T01:15:23.493Z,31.70
2019-03-30T01:16:23.464Z,30.40
2019-03-30T01:17:23.452Z,32.30
2019-03-30T01:18:23.444Z,30.10
2019-03-30T01:19:23.429Z,29.20
2019-03-30T01:20:23.446Z,30.60
2019-03-30T01:21:23.406Z,31.40
2019-03-30T01:22:23.395Z,28.50
2019-03-30T01:23:23.386Z,29.40
2019-03-30T01:24:23.373Z,29.90
2019-03-30T01:25:23.365Z,31.20
2019-03-30T01:26:23.367Z,30.40
2019-03-30T01:27:23.340Z,31.00
2019-03-30T01:28:23.329Z,29.70
2019-03-30T01:29:23.318Z,30.00
2019-03-30T01:30:23.788Z,28.30
2019-03-30T01:31:23.311Z,31.00
2019-03-30T01:32:23.286Z,34.70
2019-03-30T01:33:23.275Z,30.90
2019-03-30T01:34:23.261Z,31.80
2019-03-30T01:35:23.324Z,32.00
2019-03-30T01:36:23.268Z,29.50
2019-03-30T01:37:23.236Z,32.50
2019-03-30T01:38:23.220Z,30.10
2019-03-30T01:39:23.223Z,34.50
2019-03-30T01:40:23.197Z,31.70
2019-03-30T01:41:23.184Z,30.10
2019-03-30T01:42:23.188Z,29.60
2019-03-30T01:43:23.161Z,33.20
2019-03-30T01:44:23.151Z,34.20
2019-03-30T01:45:23.138Z,33.30
2019-03-30T01:46:23.125Z,32.10
2019-03-30T01:47:23.147Z,32.00
2019-03-30T01:48:23.105Z,32.60
2019-03-30T01:49:23.094Z,30.10
2019-03-30T01:50:23.081Z,30.80
2019-03-30T01:51:23.070Z,33.20
2019-03-30T01:52:23.058Z,29.80
2019-03-30T01:53:23.065Z,32.90
2019-03-30T01:54:23.036Z,31.20
2019-03-30T01:55:23.025Z,31.30
2019-03-30T01:56:23.014Z,31.30
2019-03-30T01:57:23.006Z,32.20
2019-03-30T01:58:23.019Z,34.80
2019-03-30T01:59:22.982Z,29.90
2019-03-30T02:00:22.973Z,33.80
2019-03-30T02:01:22.958Z,31.40
2019-03-30T02:02:22.947Z,31.50
2019-03-30T02:03:22.936Z,32.00
2019-03-30T02:04:22.943Z,32.90
2019-03-30T02:05:22.922Z,33.00
2019-03-30T02:06:22.902Z,31.40
2019-03-30T02:07:22.891Z,32.20
2019-03-30T02:08:22.884Z,32.20
2019-03-30T02:09:22.888Z,33.60
2019-03-30T02:10:22.860Z,34.10
2019-03-30T02:11:22.848Z,34.50
2019-03-30T02:12:22.836Z,33.80
2019-03-30T02:13:22.824Z,32.50
2019-03-30T02:14:22.838Z,31.40
2019-03-30T02:15:22.803Z,33.00
2019-03-30T02:16:22.795Z,32.40
2019-03-30T02:17:22.778Z,34.20
2019-03-30T02:18:22.768Z,32.30
2019-03-30T02:19:22.757Z,33.50
2019-03-30T02:20:30.704Z,34.60
2019-03-30T02:21:23.732Z,32.40
2019-03-30T02:22:22.722Z,32.10
2019-03-30T02:23:22.711Z,34.50
2019-03-30T02:24:22.699Z,34.30
2019-03-30T02:25:22.716Z,33.90
2019-03-30T02:26:22.677Z,34.00
2019-03-30T02:27:22.669Z,34.20
2019-03-30T02:28:22.655Z,32.70
2019-03-30T02:29:22.642Z,34.30
2019-03-30T02:30:22.632Z,36.50
2019-03-30T02:31:22.644Z,34.10
2019-03-30T02:32:22.636Z,36.20
2019-03-30T02:33:22.598Z,34.60
2019-03-30T02:34:22.593Z,34.50
2019-03-30T02:35:26.301Z,36.00
2019-03-30T02:36:22.691Z,36.00
2019-03-30T02:37:22.689Z,32.60
2019-03-30T02:38:22.543Z,34.40
2019-03-30T02:39:22.532Z,32.50
2019-03-30T02:40:22.520Z,34.00
2019-03-30T02:41:22.508Z,34.80
2019-03-30T02:42:22.513Z,36.00
2019-03-30T02:43:22.487Z,32.90
2019-03-30T02:44:22.475Z,35.90
2019-03-30T02:45:22.462Z,33.10
2019-03-30T02:46:22.451Z,35.20
2019-03-30T02:47:22.470Z,32.70
2019-03-30T02:48:22.431Z,36.00
2019-03-30T02:49:22.424Z,33.80
2019-03-30T02:50:22.417Z,33.90
2019-03-30T02:51:22.399Z,33.30
2019-03-30T02:52:22.385Z,33.00
2019-03-30T02:53:22.398Z,33.40
2019-03-30T02:54:22.364Z,34.70
2019-03-30T02:55:22.352Z,33.10
2019-03-30T02:56:22.342Z,33.10
2019-03-30T02:57:22.330Z,33.30
2019-03-30T02:58:22.345Z,33.60
2019-03-30T02:59:22.307Z,31.50
2019-03-30T03:00:22.297Z,34.00
2019-03-30T03:01:22.285Z,33.30
2019-03-30T03:02:22.275Z,32.40
2019-03-30T03:03:22.289Z,32.20
2019-03-30T03:04:22.252Z,33.80
2019-03-30T03:05:22.238Z,34.10
2019-03-30T03:06:22.227Z,36.60
2019-03-30T03:07:22.216Z,38.10
2019-03-30T03:08:22.209Z,38.50
2019-03-30T03:09:22.218Z,39.40
2019-03-30T03:10:22.183Z,43.70
2019-03-30T03:11:22.171Z,43.40
2019-03-30T03:12:22.158Z,42.60
2019-03-30T03:13:22.148Z,41.50
2019-03-30T03:14:22.154Z,42.60
2019-03-30T03:15:22.144Z,40.40
2019-03-30T03:16:22.114Z,44.70
2019-03-30T03:17:22.103Z,38.20
2019-03-30T03:18:22.091Z,40.30
2019-03-30T03:19:22.114Z,39.20
2019-03-30T03:20:22.067Z,39.20
2019-03-30T03:21:22.058Z,41.10
2019-03-30T03:22:22.045Z,38.00
2019-03-30T03:23:22.043Z,36.60
2019-03-30T03:24:22.026Z,34.60
2019-03-30T03:25:22.027Z,35.70
2019-03-30T03:26:22.006Z,38.20
2019-03-30T03:27:21.988Z,38.80
2019-03-30T03:28:21.977Z,36.80
2019-03-30T03:29:21.968Z,37.00
2019-03-30T03:30:21.976Z,39.50
2019-03-30T03:31:21.969Z,37.50
2019-03-30T03:32:21.931Z,38.90
2019-03-30T03:33:21.923Z,37.50
2019-03-30T03:34:21.922Z,35.40
2019-03-30T03:35:21.915Z,36.70
2019-03-30T03:36:21.885Z,35.90
2019-03-30T03:37:21.874Z,38.00
2019-03-30T03:38:21.863Z,37.00
2019-03-30T03:39:21.852Z,35.10
2019-03-30T03:40:21.856Z,38.20
2019-03-30T03:41:21.831Z,38.40
2019-03-30T03:42:21.816Z,36.00
2019-03-30T03:43:21.806Z,38.20
2019-03-30T03:44:21.795Z,35.20
2019-03-30T03:45:22.535Z,37.00
2019-03-30T03:46:21.801Z,37.80
2019-03-30T03:47:21.760Z,34.20
2019-03-30T03:48:21.752Z,34.90
2019-03-30T03:49:21.739Z,34.10
2019-03-30T03:50:21.725Z,34.40
2019-03-30T03:51:26.020Z,34.80
2019-03-30T03:52:22.721Z,33.30
2019-03-30T03:53:21.695Z,37.00
2019-03-30T03:54:21.680Z,35.30
2019-03-30T03:55:21.669Z,35.40
2019-03-30T03:56:21.659Z,35.20
2019-03-30T03:57:21.676Z,33.80
2019-03-30T03:58:21.636Z,36.20
2019-03-30T03:59:21.624Z,34.30
2019-03-30T04:00:21.612Z,36.20
2019-03-30T04:01:21.602Z,33.50
2019-03-30T04:02:21.601Z,38.60
2019-03-30T04:03:21.599Z,35.70
2019-03-30T04:04:21.571Z,31.90
2019-03-30T04:05:21.557Z,35.60
2019-03-30T04:06:21.545Z,35.20
2019-03-30T04:07:21.533Z,33.00
2019-03-30T04:08:21.554Z,33.20
2019-03-30T04:09:21.509Z,33.30
2019-03-30T04:10:21.498Z,34.80
2019-03-30T04:11:21.489Z,34.80
2019-03-30T04:12:21.492Z,35.00
2019-03-30T04:13:21.478Z,35.70
2019-03-30T04:14:21.481Z,32.90
2019-03-30T04:15:21.444Z,33.50
2019-03-30T04:16:21.429Z,33.40
2019-03-30T04:17:21.418Z,35.40
2019-03-30T04:18:21.414Z,33.50
2019-03-30T04:19:21.399Z,33.80
2019-03-30T04:20:21.400Z,32.40
2019-03-30T04:21:21.378Z,34.60
2019-03-30T04:22:21.362Z,35.30
2019-03-30T04:23:21.354Z,34.00
2019-03-30T04:24:21.343Z,34.80
2019-03-30T04:25:21.355Z,32.70
2019-03-30T04:26:21.316Z,36.10
2019-03-30T04:27:21.311Z,33.50
2019-03-30T04:28:21.296Z,33.40
2019-03-30T04:29:21.282Z,35.30
2019-03-30T04:30:21.274Z,34.80
2019-03-30T04:31:21.275Z,33.80
2019-03-30T04:32:21.252Z,33.00
2019-03-30T04:33:21.235Z,32.10
2019-03-30T04:34:21.226Z,33.30
2019-03-30T04:35:21.229Z,33.00
2019-03-30T04:36:21.231Z,33.90
2019-03-30T04:37:21.192Z,32.90
2019-03-30T04:38:21.181Z,32.70
2019-03-30T04:39:21.167Z,33.20
2019-03-30T04:40:21.157Z,34.20
2019-03-30T04:41:21.146Z,33.60
2019-03-30T04:42:21.153Z,33.80
2019-03-30T04:43:21.128Z,41.30
2019-03-30T04:44:21.109Z,38.70
2019-03-30T04:45:21.098Z,38.70
2019-03-30T04:46:21.089Z,40.80
2019-03-30T04:47:21.110Z,40.10
2019-03-30T04:48:21.069Z,41.80
2019-03-30T04:49:21.059Z,38.80
2019-03-30T04:50:21.048Z,38.50
2019-03-30T04:51:21.034Z,39.70
2019-03-30T04:52:21.021Z,39.00
2019-03-30T04:53:21.028Z,34.80
2019-03-30T04:54:20.999Z,35.40
2019-03-30T04:55:20.985Z,32.80
2019-03-30T04:56:20.977Z,35.00
2019-03-30T04:57:20.966Z,34.40
2019-03-30T04:58:20.984Z,32.80
2019-03-30T04:59:20.955Z,32.60
2019-03-30T05:00:20.931Z,33.50
2019-03-30T05:01:20.918Z,33.80
2019-03-30T05:02:20.923Z,29.90
2019-03-30T05:03:20.895Z,32.40
2019-03-30T05:04:20.910Z,31.30
2019-03-30T05:05:20.875Z,33.30
2019-03-30T05:06:20.861Z,32.10
2019-03-30T05:07:20.849Z,32.40
2019-03-30T05:08:20.837Z,34.20
2019-03-30T05:09:20.826Z,33.60
2019-03-30T05:10:20.833Z,33.20
2019-03-30T05:11:20.803Z,32.90
2019-03-30T05:12:21.491Z,30.40
2019-03-30T05:13:20.782Z,32.00
2019-03-30T05:14:20.771Z,31.00
2019-03-30T05:15:20.789Z,30.70
2019-03-30T05:16:20.747Z,31.30
2019-03-30T05:17:20.736Z,29.00
2019-03-30T05:18:20.725Z,32.00
2019-03-30T05:19:20.717Z,34.40
2019-03-30T05:20:20.705Z,31.60
2019-03-30T05:21:20.718Z,32.60
2019-03-30T05:22:20.679Z,36.10
2019-03-30T05:23:20.671Z,33.70
2019-03-30T05:24:20.657Z,32.50
2019-03-30T05:25:20.645Z,32.60
2019-03-30T05:26:20.633Z,30.40
2019-03-30T05:27:20.646Z,31.60
2019-03-30T05:28:20.611Z,31.30
2019-03-30T05:29:20.599Z,29.90
2019-03-30T05:30:20.589Z,29.70
2019-03-30T05:31:20.576Z,31.40
2019-03-30T05:32:20.593Z,29.10
2019-03-30T05:33:20.553Z,31.40
2019-03-30T05:34:20.542Z,31.60
2019-03-30T05:35:20.534Z,30.70
2019-03-30T05:36:20.519Z,32.20
2019-03-30T05:37:20.509Z,33.60
2019-03-30T05:38:20.513Z,30.50
2019-03-30T05:39:20.486Z,29.20
2019-03-30T05:40:20.475Z,29.10
2019-03-30T05:41:20.463Z,27.90
2019-03-30T05:42:20.452Z,30.80
2019-03-30T05:43:20.467Z,30.70
2019-03-30T05:44:20.429Z,26.90
2019-03-30T05:45:20.420Z,28.10
2019-03-30T05:46:20.406Z,25.80
2019-03-30T05:47:20.394Z,30.70
2019-03-30T05:48:20.383Z,29.10
2019-03-30T05:49:20.389Z,30.60
2019-03-30T05:50:20.362Z,30.20
2019-03-30T05:51:20.350Z,28.20
2019-03-30T05:52:26.548Z,30.60
2019-03-30T05:53:21.330Z,27.60
2019-03-30T05:54:20.345Z,28.90
2019-03-30T05:55:20.304Z,30.20
2019-03-30T05:56:20.302Z,27.70
2019-03-30T05:57:20.282Z,26.40
2019-03-30T05:58:20.271Z,29.80
2019-03-30T05:59:20.262Z,27.80
2019-03-30T06:00:20.265Z,27.10
2019-03-30T06:01:20.241Z,29.70
2019-03-30T06:02:20.227Z,28.40
2019-03-30T06:03:20.213Z,30.90
2019-03-30T06:04:20.203Z,32.20
2019-03-30T06:05:20.259Z,30.40
2019-03-30T06:06:20.183Z,29.90
2019-03-30T06:07:20.172Z,31.60
2019-03-30T06:08:20.159Z,29.80
2019-03-30T06:09:20.147Z,30.20
2019-03-30T06:10:20.133Z,28.60
2019-03-30T06:11:20.151Z,30.60
2019-03-30T06:12:20.113Z,28.60
2019-03-30T06:13:20.105Z,30.40
2019-03-30T06:14:20.092Z,27.80
2019-03-30T06:15:20.079Z,25.90
2019-03-30T06:16:20.067Z,31.30
2019-03-30T06:17:20.078Z,24.20
2019-03-30T06:18:20.048Z,27.00
2019-03-30T06:19:20.035Z,25.90
2019-03-30T06:20:20.023Z,26.90
2019-03-30T06:21:20.012Z,27.00
2019-03-30T06:22:20.017Z,28.20
2019-03-30T06:23:19.990Z,26.40
2019-03-30T06:24:19.979Z,27.50
2019-03-30T06:25:19.971Z,25.40
2019-03-30T06:26:20.001Z,26.50
2019-03-30T06:27:19.972Z,24.90
2019-03-30T06:28:19.936Z,25.40
2019-03-30T06:29:19.922Z,26.50
2019-03-30T06:30:19.913Z,26.50
2019-03-30T06:31:19.899Z,24.80
2019-03-30T06:32:19.886Z,23.90
2019-03-30T06:33:19.903Z,24.90
2019-03-30T06:34:19.867Z,27.80
2019-03-30T06:35:19.858Z,25.20
2019-03-30T06:36:19.842Z,26.50
2019-03-30T06:37:19.833Z,26.70
2019-03-30T06:38:19.819Z,27.50
2019-03-30T06:39:19.823Z,25.00
2019-03-30T06:40:19.796Z,27.70
2019-03-30T06:41:19.786Z,27.30
2019-03-30T06:42:19.773Z,27.40
2019-03-30T06:43:19.761Z,26.10
2019-03-30T06:44:19.778Z,26.00
2019-03-30T06:45:19.739Z,27.00
2019-03-30T06:46:19.733Z,25.20
2019-03-30T06:47:19.717Z,23.80
2019-03-30T06:48:19.709Z,24.60
2019-03-30T06:49:19.693Z,23.90
2019-03-30T06:50:19.709Z,23.80
2019-03-30T06:51:19.673Z,21.00
2019-03-30T06:52:19.664Z,22.10
2019-03-30T06:53:19.649Z,25.60
2019-03-30T06:54:19.637Z,21.20
2019-03-30T06:55:19.628Z,21.80
2019-03-30T06:56:19.632Z,21.00
2019-03-30T06:57:19.605Z,20.00
2019-03-30T06:58:19.596Z,20.90
2019-03-30T06:59:19.581Z,22.40
2019-03-30T07:00:19.574Z,19.30
2019-03-30T07:01:19.588Z,23.60
2019-03-30T07:02:19.550Z,24.40
2019-03-30T07:03:19.536Z,18.80
2019-03-30T07:04:19.525Z,21.60
2019-03-30T07:05:19.513Z,21.70
2019-03-30T07:06:19.503Z,20.20
2019-03-30T07:07:19.508Z,20.50
2019-03-30T07:08:19.483Z,19.70
2019-03-30T07:09:19.468Z,22.00
2019-03-30T07:10:19.456Z,21.20
2019-03-30T07:11:21.403Z,21.10
2019-03-30T07:12:19.464Z,20.60
2019-03-30T07:13:19.424Z,19.80
2019-03-30T07:14:19.411Z,20.60
2019-03-30T07:15:19.401Z,19.00
2019-03-30T07:16:19.388Z,20.30
2019-03-30T07:17:19.379Z,18.90
2019-03-30T07:18:19.396Z,24.50
2019-03-30T07:19:19.358Z,17.90
2019-03-30T07:20:19.344Z,19.70
2019-03-30T07:21:19.335Z,20.10
2019-03-30T07:22:19.323Z,19.50
2019-03-30T07:23:19.311Z,17.70
2019-03-30T07:24:19.321Z,19.40
2019-03-30T07:25:19.296Z,21.60
2019-03-30T07:26:19.279Z,19.80
2019-03-30T07:27:19.275Z,19.10
2019-03-30T07:28:19.254Z,20.40
2019-03-30T07:29:19.261Z,22.20
2019-03-30T07:30:19.232Z,18.90
2019-03-30T07:31:19.224Z,19.00
2019-03-30T07:32:19.211Z,20.40
2019-03-30T07:33:19.197Z,20.30
2019-03-30T07:34:19.215Z,19.90
2019-03-30T07:35:27.538Z,23.30
2019-03-30T07:36:27.571Z,19.90
2019-03-30T07:37:27.609Z,21.10
2019-03-30T07:38:28.657Z,19.70
2019-03-30T07:39:28.216Z,17.90
2019-03-30T07:40:28.724Z,19.80
2019-03-30T07:41:27.265Z,20.50
2019-03-30T07:42:19.097Z,19.50
2019-03-30T07:43:19.088Z,21.30
2019-03-30T07:44:19.075Z,17.20
2019-03-30T07:45:19.095Z,17.20
2019-03-30T07:46:19.806Z,18.20
2019-03-30T07:47:19.039Z,17.60
2019-03-30T07:48:19.031Z,18.70
2019-03-30T07:49:19.017Z,16.80
2019-03-30T07:50:19.007Z,18.20
2019-03-30T07:51:19.012Z,18.20
2019-03-30T07:52:18.985Z,18.80
2019-03-30T07:53:26.370Z,20.00
2019-03-30T07:54:19.965Z,19.00
2019-03-30T07:55:18.950Z,20.00
2019-03-30T07:56:18.960Z,18.70
2019-03-30T07:57:18.934Z,17.50
2019-03-30T07:58:18.918Z,19.00
2019-03-30T07:59:18.905Z,19.10
2019-03-30T08:00:18.892Z,19.90
2019-03-30T08:01:18.909Z,21.20
2019-03-30T08:02:18.873Z,18.50
2019-03-30T08:03:18.859Z,15.80
2019-03-30T08:04:18.849Z,18.50
2019-03-30T08:05:18.836Z,17.60
2019-03-30T08:06:18.826Z,21.60
2019-03-30T08:07:18.841Z,20.00
2019-03-30T08:08:18.809Z,16.40
2019-03-30T08:09:18.792Z,17.10
2019-03-30T08:10:18.781Z,17.70
2019-03-30T08:11:18.771Z,17.30
2019-03-30T08:12:18.761Z,16.70
2019-03-30T08:13:18.777Z,17.00
2019-03-30T08:14:18.737Z,18.30
2019-03-30T08:15:18.727Z,18.50
2019-03-30T08:16:18.721Z,17.90
2019-03-30T08:17:18.709Z,18.10
2019-03-30T08:18:18.699Z,18.40
2019-03-30T08:19:21.653Z,17.00
2019-03-30T08:20:18.671Z,16.50
2019-03-30T08:21:18.658Z,17.50
2019-03-30T08:22:18.647Z,17.90
2019-03-30T08:23:18.637Z,16.90
2019-03-30T08:24:18.651Z,18.50
2019-03-30T08:25:18.614Z,16.90
2019-03-30T08:26:18.606Z,15.90
2019-03-30T08:27:18.590Z,18.90
2019-03-30T08:28:18.579Z,19.80
2019-03-30T08:29:18.571Z,19.80
2019-03-30T08:30:18.577Z,16.90
2019-03-30T08:31:18.543Z,17.30
2019-03-30T08:32:18.533Z,18.70
2019-03-30T08:33:18.522Z,21.00
2019-03-30T08:34:18.509Z,17.30
2019-03-30T08:35:18.526Z,17.40
2019-03-30T08:36:18.488Z,16.60
2019-03-30T08:37:18.477Z,17.50
2019-03-30T08:38:18.465Z,20.60
2019-03-30T08:39:18.453Z,19.70
2019-03-30T08:40:18.444Z,17.60
2019-03-30T08:41:18.447Z,16.20
2019-03-30T08:42:18.419Z,17.70
2019-03-30T08:43:18.438Z,17.00
2019-03-30T08:44:18.395Z,17.10
2019-03-30T08:45:18.383Z,19.00
2019-03-30T08:46:18.403Z,16.80
2019-03-30T08:47:18.364Z,16.50
2019-03-30T08:48:18.351Z,17.60
2019-03-30T08:49:18.338Z,16.50
2019-03-30T08:50:18.330Z,15.60
2019-03-30T08:51:20.767Z,16.80
2019-03-30T08:52:18.320Z,16.90
2019-03-30T08:53:18.294Z,17.30
2019-03-30T08:54:18.287Z,19.30
2019-03-30T08:55:18.273Z,15.20
2019-03-30T08:56:18.259Z,16.40
2019-03-30T08:57:18.276Z,16.70
2019-03-30T08:58:18.246Z,18.80
2019-03-30T08:59:18.230Z,16.40
2019-03-30T09:00:18.217Z,16.70
2019-03-30T09:01:18.210Z,16.20
2019-03-30T09:02:18.209Z,18.50
2019-03-30T09:03:18.202Z,16.30
2019-03-30T09:04:18.173Z,17.50
2019-03-30T09:05:18.164Z,16.90
2019-03-30T09:06:18.149Z,17.60
2019-03-30T09:07:18.138Z,15.60
2019-03-30T09:08:18.163Z,17.10
2019-03-30T09:09:18.116Z,17.80
2019-03-30T09:10:18.103Z,16.00
2019-03-30T09:11:18.093Z,17.50
2019-03-30T09:12:18.085Z,16.70
2019-03-30T09:13:18.071Z,17.80
2019-03-30T09:14:18.087Z,16.40
2019-03-30T09:15:18.051Z,15.30
2019-03-30T09:16:18.039Z,16.70
2019-03-30T09:17:18.028Z,19.40
2019-03-30T09:18:18.016Z,17.70
2019-03-30T09:19:18.005Z,19.30
2019-03-30T09:20:18.021Z,16.00
2019-03-30T09:21:17.982Z,16.30
2019-03-30T09:22:17.972Z,15.10
2019-03-30T09:23:17.960Z,16.60
2019-03-30T09:24:17.949Z,16.90
2019-03-30T09:25:17.966Z,15.90
2019-03-30T09:26:17.949Z,15.20
2019-03-30T09:27:17.916Z,16.60
2019-03-30T09:28:17.905Z,15.40
2019-03-30T09:29:17.895Z,16.30
2019-03-30T09:30:17.883Z,15.10
2019-03-30T09:31:17.901Z,17.50
2019-03-30T09:32:17.865Z,15.10
2019-03-30T09:33:17.849Z,15.80
2019-03-30T09:34:17.839Z,16.20
2019-03-30T09:35:17.828Z,15.50
2019-03-30T09:36:17.817Z,15.20
2019-03-30T09:37:17.835Z,14.70
2019-03-30T09:38:17.797Z,16.50
2019-03-30T09:39:17.785Z,14.80
2019-03-30T09:40:17.771Z,13.70
2019-03-30T09:41:17.765Z,13.90
2019-03-30T09:42:17.748Z,13.80
2019-03-30T09:43:17.754Z,16.60
2019-03-30T09:44:17.728Z,14.90
2019-03-30T09:45:17.718Z,15.20
2019-03-30T09:46:17.705Z,14.50
2019-03-30T09:47:17.696Z,13.80
2019-03-30T09:48:17.710Z,13.40
2019-03-30T09:49:17.671Z,13.70
2019-03-30T09:50:17.661Z,14.90
2019-03-30T09:51:17.649Z,14.30
2019-03-30T09:52:17.638Z,13.70
2019-03-30T09:53:17.627Z,15.40
2019-03-30T09:54:23.684Z,14.40
2019-03-30T09:55:18.606Z,14.10
2019-03-30T09:56:17.595Z,13.60
2019-03-30T09:57:17.582Z,13.00
2019-03-30T09:58:17.572Z,12.80
2019-03-30T09:59:17.562Z,13.20
2019-03-30T10:00:17.565Z,13.30
2019-03-30T10:01:17.538Z,13.40
2019-03-30T10:02:17.530Z,13.80
2019-03-30T10:03:17.517Z,12.40
2019-03-30T10:04:17.506Z,12.40
2019-03-30T10:05:17.524Z,13.50
2019-03-30T10:06:17.487Z,12.90
2019-03-30T10:07:17.473Z,12.80
2019-03-30T10:08:17.462Z,13.60
2019-03-30T10:09:17.462Z,12.00
2019-03-30T10:10:17.448Z,12.80
2019-03-30T10:11:17.459Z,12.60
2019-03-30T10:12:17.425Z,13.30
2019-03-30T10:13:17.409Z,12.70
2019-03-30T10:14:17.401Z,12.90
2019-03-30T10:15:17.390Z,11.60
2019-03-30T10:16:17.385Z,13.80
2019-03-30T10:17:17.396Z,12.50
2019-03-30T10:18:19.336Z,12.10
2019-03-30T10:19:17.349Z,11.90
2019-03-30T10:20:17.333Z,11.80
2019-03-30T10:21:17.324Z,12.00
2019-03-30T10:22:17.314Z,11.60
2019-03-30T10:23:17.323Z,11.50
2019-03-30T10:24:17.290Z,13.20
2019-03-30T10:25:17.278Z,11.90
2019-03-30T10:26:17.270Z,12.90
2019-03-30T10:27:17.257Z,12.00
2019-03-30T10:28:17.272Z,11.80
2019-03-30T10:29:17.237Z,12.00
2019-03-30T10:30:17.226Z,12.20
2019-03-30T10:31:17.271Z,12.60
2019-03-30T10:32:17.816Z,11.70
2019-03-30T10:33:17.224Z,11.60
2019-03-30T10:34:17.184Z,11.50
2019-03-30T10:35:17.229Z,11.10
2019-03-30T10:36:17.166Z,11.80
2019-03-30T10:37:17.155Z,11.00
2019-03-30T10:38:17.143Z,13.10
2019-03-30T10:39:17.164Z,11.60
2019-03-30T10:40:20.626Z,11.30
2019-03-30T10:41:17.114Z,12.20
2019-03-30T10:42:17.102Z,11.80
2019-03-30T10:43:17.091Z,12.20
2019-03-30T10:44:17.079Z,11.50
2019-03-30T10:45:17.085Z,12.90
2019-03-30T10:46:17.057Z,11.40
2019-03-30T10:47:17.049Z,11.20
2019-03-30T10:48:17.037Z,11.60
2019-03-30T10:49:17.027Z,11.00
2019-03-30T10:50:17.034Z,11.20
2019-03-30T10:51:17.008Z,11.20
2019-03-30T10:52:16.995Z,11.10
2019-03-30T10:53:16.986Z,12.00
2019-03-30T10:54:16.977Z,11.90
2019-03-30T10:55:16.992Z,11.70
2019-03-30T10:56:16.956Z,12.40
2019-03-30T10:57:16.945Z,11.90
2019-03-30T10:58:16.937Z,12.10
2019-03-30T10:59:16.925Z,11.30
2019-03-30T11:00:16.914Z,11.80
2019-03-30T11:01:16.933Z,11.90
2019-03-30T11:02:16.895Z,12.20
2019-03-30T11:03:16.892Z,12.10
2019-03-30T11:04:16.887Z,11.60
2019-03-30T11:05:16.860Z,11.80
2019-03-30T11:06:16.855Z,11.70
2019-03-30T11:07:17.347Z,11.40
2019-03-30T11:08:16.832Z,11.00
2019-03-30T11:09:16.820Z,11.30
2019-03-30T11:10:16.813Z,10.10
2019-03-30T11:11:16.801Z,9.70
2019-03-30T11:12:16.816Z,10.50
2019-03-30T11:13:16.779Z,12.50
2019-03-30T11:14:16.770Z,11.50
2019-03-30T11:15:16.761Z,10.20
2019-03-30T11:16:16.751Z,11.20
2019-03-30T11:17:19.370Z,10.30
2019-03-30T11:18:16.744Z,10.50
2019-03-30T11:19:16.790Z,10.10
2019-03-30T11:20:16.709Z,9.70
2019-03-30T11:21:16.700Z,10.40
2019-03-30T11:22:16.722Z,10.50
2019-03-30T11:23:16.678Z,11.40
2019-03-30T11:24:17.338Z,10.10
2019-03-30T11:25:16.664Z,10.80
2019-03-30T11:26:16.647Z,10.50
2019-03-30T11:27:16.637Z,10.30
2019-03-30T11:28:16.648Z,10.50
2019-03-30T11:29:16.625Z,12.70
2019-03-30T11:30:16.607Z,11.20
2019-03-30T11:31:16.658Z,11.70
2019-03-30T11:32:16.586Z,11.30
2019-03-30T11:33:16.607Z,12.50
2019-03-30T11:34:16.569Z,12.30
2019-03-30T11:35:16.554Z,12.10
2019-03-30T11:36:18.586Z,12.80
2019-03-30T11:37:16.535Z,12.80
2019-03-30T11:38:16.527Z,12.50
2019-03-30T11:39:16.537Z,13.40
2019-03-30T11:40:16.504Z,12.70
2019-03-30T11:41:16.492Z,13.60
2019-03-30T11:42:16.482Z,14.30
2019-03-30T11:43:16.475Z,14.20
2019-03-30T11:44:16.460Z,14.10
2019-03-30T11:45:16.468Z,14.70
2019-03-30T11:46:16.440Z,13.90
2019-03-30T11:47:16.440Z,14.10
2019-03-30T11:48:16.424Z,14.00
2019-03-30T11:49:16.407Z,14.10
2019-03-30T11:50:16.439Z,14.30
2019-03-30T11:51:16.386Z,16.00
2019-03-30T11:52:16.379Z,15.30
2019-03-30T11:53:16.364Z,15.70
2019-03-30T11:54:16.350Z,17.20
2019-03-30T11:55:22.042Z,15.70
2019-03-30T11:56:17.359Z,16.50
2019-03-30T11:57:16.319Z,14.80
2019-03-30T11:58:16.306Z,15.90
2019-03-30T11:59:16.294Z,15.70
2019-03-30T12:00:16.282Z,15.10
2019-03-30T12:01:16.272Z,16.00
2019-03-30T12:02:27.257Z,15.20
2019-03-30T12:03:17.250Z,15.00
2019-03-30T12:04:16.241Z,15.30
2019-03-30T12:05:16.229Z,17.90
2019-03-30T12:06:16.217Z,19.10
2019-03-30T12:07:16.229Z,18.00
2019-03-30T12:08:16.195Z,15.90
2019-03-30T12:09:16.222Z,18.20
2019-03-30T12:10:16.174Z,14.40
2019-03-30T12:11:16.185Z,19.20
2019-03-30T12:12:16.155Z,18.10
2019-03-30T12:13:16.170Z,15.40
2019-03-30T12:14:16.131Z,15.90
2019-03-30T12:15:16.125Z,15.80
2019-03-30T12:16:16.116Z,15.50
2019-03-30T12:17:16.098Z,15.20
2019-03-30T12:18:16.086Z,15.20
2019-03-30T12:19:16.089Z,17.60
2019-03-30T12:20:16.074Z,16.90
2019-03-30T12:21:16.053Z,16.00
2019-03-30T12:22:16.039Z,15.10
2019-03-30T12:23:16.033Z,16.70
2019-03-30T12:24:16.049Z,15.00
2019-03-30T12:25:16.005Z,18.10
2019-03-30T12:26:15.999Z,16.40
2019-03-30T12:27:15.996Z,16.90
2019-03-30T12:28:15.971Z,16.70
2019-03-30T12:29:15.962Z,15.40
2019-03-30T12:30:15.972Z,14.60
2019-03-30T12:31:15.938Z,15.60
2019-03-30T12:32:15.933Z,15.10
2019-03-30T12:33:15.920Z,17.70
2019-03-30T12:34:15.906Z,17.40
2019-03-30T12:35:15.922Z,16.00
2019-03-30T12:36:15.882Z,16.30
2019-03-30T12:37:15.882Z,16.30
2019-03-30T12:38:15.860Z,16.90
2019-03-30T12:39:15.849Z,16.40
2019-03-30T12:40:15.839Z,22.50
2019-03-30T12:41:15.848Z,21.00
2019-03-30T12:42:15.818Z,18.10
2019-03-30T12:43:15.806Z,18.40
2019-03-30T12:44:15.795Z,20.10
2019-03-30T12:45:15.787Z,17.30
2019-03-30T12:46:15.805Z,16.80
2019-03-30T12:47:15.762Z,16.70
2019-03-30T12:48:15.751Z,18.90
2019-03-30T12:49:15.739Z,18.00
2019-03-30T12:50:15.731Z,17.30
2019-03-30T12:51:15.716Z,19.10
2019-03-30T12:52:15.724Z,17.40